createdAt,value
2023-03-23T15:59:19.595Z,1.45
2023-03-23T16:01:18.389Z,1.02
2023-03-23T16:03:19.249Z,1.15
2023-03-23T16:05:17.429Z,1.30
2023-03-23T16:07:15.583Z,1.75
2023-03-23T16:09:15.596Z,0.90
2023-03-23T16:11:14.194Z,1.85
2023-03-23T16:13:13.763Z,0.85
2023-03-23T16:15:11.606Z,3.78
2023-03-23T16:17:13.972Z,0.98
2023-03-23T16:19:16.132Z,1.05
2023-03-23T16:21:14.114Z,0.35
2023-03-23T16:23:12.028Z,4.00
2023-03-23T16:25:10.461Z,0.90
2023-03-23T16:27:10.816Z,0.88
2023-03-23T16:29:26.189Z,1.55
2023-03-23T16:31:33.113Z,0.30
2023-03-23T16:33:31.542Z,6.80
2023-03-23T16:35:38.515Z,0.70
2023-03-23T16:37:37.406Z,2.17
2023-03-23T16:39:35.258Z,5.15
2023-03-23T16:41:33.267Z,0.68
2023-03-23T16:43:31.277Z,1.70
2023-03-23T16:45:30.744Z,1.27
2023-03-23T16:47:28.685Z,1.05
2023-03-23T16:49:26.828Z,3.00
2023-03-23T16:51:30.395Z,1.83
2023-03-23T16:53:28.301Z,2.42
2023-03-23T16:55:27.288Z,2.85
2023-03-23T16:57:25.369Z,4.88
2023-03-23T16:59:23.376Z,1.13
2023-03-23T17:01:22.830Z,1.30
2023-03-23T17:03:21.640Z,1.48
2023-03-23T17:05:20.583Z,1.23
2023-03-23T17:07:18.569Z,65.50
2023-03-23T17:09:17.648Z,56.38
2023-03-23T17:11:15.556Z,18.40
2023-03-23T17:13:13.888Z,7.47
2023-03-23T17:15:14.312Z,6.85
2023-03-23T17:17:25.970Z,7.10
2023-03-23T17:19:23.931Z,3.47
2023-03-23T17:21:25.787Z,4.00
2023-03-23T17:23:26.763Z,4.13
2023-03-23T17:25:25.039Z,5.13
2023-03-23T17:27:23.241Z,2.05
2023-03-23T17:29:22.558Z,1.50
2023-03-23T17:31:20.663Z,1.13
2023-03-23T17:33:20.243Z,1.25
2023-03-23T17:35:18.316Z,1.58
2023-03-23T17:37:16.126Z,1.50
2023-03-23T17:39:14.587Z,1.05
2023-03-23T17:41:12.852Z,1.35
2023-03-23T17:43:14.063Z,1.50
2023-03-23T17:45:12.044Z,4.00
2023-03-23T17:47:15.733Z,1.38
2023-03-23T17:49:15.235Z,1.83
2023-03-23T17:51:17.435Z,2.42
2023-03-23T17:53:15.792Z,1.60
2023-03-23T17:55:14.041Z,0.70
2023-03-23T17:57:12.048Z,3.42
2023-03-23T17:59:10.155Z,1.42
2023-03-23T18:01:08.575Z,0.57
2023-03-23T18:03:06.699Z,1.55
2023-03-23T18:05:06.629Z,0.85
2023-03-23T18:07:04.660Z,1.20
2023-03-23T18:09:03.630Z,1.50
2023-03-23T18:11:01.620Z,0.77
2023-03-23T18:12:59.576Z,6.38
2023-03-23T18:14:58.290Z,6.20
2023-03-23T18:16:56.361Z,2.65
2023-03-23T18:18:54.285Z,7.60
2023-03-23T18:20:56.966Z,1.13
2023-03-23T18:22:55.086Z,2.70
2023-03-23T18:24:52.956Z,1.73
2023-03-23T18:26:51.282Z,1.70
2023-03-23T18:28:49.854Z,1.25
2023-03-23T18:30:49.390Z,3.17
2023-03-23T18:32:47.493Z,1.75
2023-03-23T18:34:46.606Z,1.70
2023-03-23T18:36:46.122Z,3.22
2023-03-23T18:38:44.970Z,11.55
2023-03-23T18:40:46.716Z,5.45
2023-03-23T18:42:45.499Z,8.15
2023-03-23T18:44:43.631Z,4.45
2023-03-23T18:46:41.403Z,2.72
2023-03-23T18:48:39.381Z,9.80
2023-03-23T18:50:37.310Z,2.03
2023-03-23T18:52:37.095Z,4.85
2023-03-23T18:54:35.209Z,2.15
2023-03-23T18:56:33.225Z,3.58
2023-03-23T18:58:33.243Z,2.03
2023-03-23T19:00:32.730Z,4.95
2023-03-23T19:02:30.907Z,3.45
2023-03-23T19:04:31.764Z,3.40
2023-03-23T19:06:32.335Z,3.28
2023-03-23T19:08:32.910Z,11.18
2023-03-23T19:10:37.007Z,6.13
2023-03-23T19:12:35.039Z,3.85
2023-03-23T19:14:34.813Z,4.78
2023-03-23T19:16:35.964Z,39.80
2023-03-23T19:18:34.534Z,77.05
2023-03-23T19:21:06.369Z,48.30
2023-03-23T19:22:50.872Z,12.05
2023-03-23T19:24:50.477Z,10.68
2023-03-23T19:26:48.791Z,9.65
2023-03-23T19:29:23.370Z,3.05
2023-03-23T19:31:04.869Z,2.65
2023-03-23T19:33:02.879Z,13.57
2023-03-23T19:35:03.422Z,6.55
2023-03-23T19:37:05.927Z,3.03
2023-03-23T19:39:06.639Z,3.25
2023-03-23T19:41:06.536Z,3.53
2023-03-23T19:43:06.093Z,3.38
2023-03-23T19:45:06.596Z,3.97
2023-03-23T19:47:04.840Z,4.40
2023-03-23T19:49:04.045Z,3.28
2023-03-23T19:51:02.632Z,4.38
2023-03-23T19:53:00.905Z,3.72
2023-03-23T19:55:00.125Z,4.70
2023-03-23T19:56:59.961Z,2.10
2023-03-23T19:58:57.885Z,3.53
2023-03-23T20:00:58.185Z,5.32
2023-03-23T20:02:57.213Z,4.63
2023-03-23T20:05:05.400Z,5.43
2023-03-23T20:07:05.914Z,5.13
2023-03-23T20:09:08.616Z,5.50
2023-03-23T20:11:08.658Z,5.43
2023-03-23T20:13:10.173Z,3.97
2023-03-23T20:15:08.796Z,2.65
2023-03-23T20:17:09.906Z,3.10
2023-03-23T20:19:08.792Z,2.60
2023-03-23T20:21:09.019Z,18.30
2023-03-23T20:23:08.894Z,14.30
2023-03-23T20:25:07.457Z,25.58
2023-03-23T20:27:05.465Z,7.93
2023-03-23T20:29:06.958Z,18.00
2023-03-23T20:31:21.087Z,3.78
2023-03-23T20:33:21.041Z,8.43
2023-03-23T20:35:21.612Z,2.33
2023-03-23T20:37:24.042Z,1.33
2023-03-23T20:39:23.568Z,2.40
2023-03-23T20:41:21.590Z,4.10
2023-03-23T20:43:19.714Z,3.72
2023-03-23T20:45:21.750Z,2.78
2023-03-23T20:47:20.613Z,3.45
2023-03-23T20:49:19.970Z,3.60
2023-03-23T20:51:18.238Z,7.15
2023-03-23T20:53:16.384Z,3.58
2023-03-23T20:55:15.343Z,3.72
2023-03-23T20:57:13.477Z,4.43
2023-03-23T20:59:14.227Z,3.20
2023-03-23T21:01:13.825Z,5.38
2023-03-23T21:03:12.336Z,2.70
2023-03-23T21:05:10.995Z,4.93
2023-03-23T21:07:10.105Z,3.67
2023-03-23T21:09:08.997Z,4.10
2023-03-23T21:11:08.518Z,2.95
2023-03-23T21:13:10.468Z,1.50
2023-03-23T21:15:08.758Z,1.27
2023-03-23T21:17:08.275Z,4.72
2023-03-23T21:19:07.008Z,3.35
2023-03-23T21:21:09.251Z,4.43
2023-03-23T21:23:07.814Z,3.83
2023-03-23T21:25:07.197Z,1.83
2023-03-23T21:27:07.056Z,2.30
2023-03-23T21:29:09.863Z,1.92
2023-03-23T21:31:08.571Z,9.38
2023-03-23T21:33:11.332Z,4.15
2023-03-23T21:35:09.489Z,1.02
2023-03-23T21:37:07.468Z,4.05
2023-03-23T21:39:06.180Z,1.80
2023-03-23T21:41:07.901Z,2.40
2023-03-23T21:43:05.778Z,3.17
2023-03-23T21:45:04.032Z,7.43
2023-03-23T21:47:03.062Z,19.85
2023-03-23T21:49:02.488Z,7.40
2023-03-23T21:51:05.751Z,2.38
2023-03-23T21:53:03.692Z,6.75
2023-03-23T21:55:02.844Z,3.90
2023-03-23T21:57:01.545Z,5.05
2023-03-23T21:59:01.285Z,3.72
2023-03-23T22:01:01.281Z,6.70
2023-03-23T22:02:59.243Z,4.85
2023-03-23T22:04:58.877Z,5.15
2023-03-23T22:06:57.422Z,9.32
2023-03-23T22:08:56.062Z,11.20
2023-03-23T22:11:00.793Z,1.30
2023-03-23T22:12:59.701Z,2.08
2023-03-23T22:14:57.795Z,3.05
2023-03-23T22:16:55.788Z,3.28
2023-03-23T22:18:55.404Z,2.75
2023-03-23T22:20:54.952Z,2.03
2023-03-23T22:22:53.439Z,4.50
2023-03-23T22:24:51.801Z,1.30
2023-03-23T22:26:49.790Z,4.20
2023-03-23T22:28:49.591Z,5.00
2023-03-23T22:30:48.026Z,2.70
2023-03-23T22:32:46.013Z,1.77
2023-03-23T22:34:47.424Z,2.58
2023-03-23T22:36:46.876Z,2.53
2023-03-23T22:38:45.705Z,1.75
2023-03-23T22:40:43.898Z,6.40
2023-03-23T22:42:42.099Z,3.30
2023-03-23T22:44:40.115Z,11.43
2023-03-23T22:46:38.089Z,6.55
2023-03-23T22:48:36.125Z,8.18
2023-03-23T22:50:34.188Z,7.10
2023-03-23T22:52:33.567Z,3.05
2023-03-23T22:54:34.400Z,4.22
2023-03-23T22:56:32.419Z,4.47
2023-03-23T22:58:30.388Z,1.25
2023-03-23T23:00:28.509Z,3.00
2023-03-23T23:02:26.515Z,1.05
2023-03-23T23:04:24.604Z,3.53
2023-03-23T23:06:22.649Z,2.60
2023-03-23T23:08:22.299Z,2.60
2023-03-23T23:10:20.399Z,3.60
2023-03-23T23:12:18.848Z,1.38
2023-03-23T23:14:16.767Z,3.40
2023-03-23T23:16:17.355Z,1.48
2023-03-23T23:18:15.996Z,3.45
2023-03-23T23:20:14.272Z,1.73
2023-03-23T23:22:18.912Z,1.92
2023-03-23T23:24:18.723Z,2.30
2023-03-23T23:26:17.306Z,3.33
2023-03-23T23:28:30.146Z,1.55
2023-03-23T23:30:35.838Z,4.35
2023-03-23T23:32:34.431Z,6.18
2023-03-23T23:34:32.543Z,3.97
2023-03-23T23:36:32.060Z,8.50
2023-03-23T23:38:32.160Z,7.53
2023-03-23T23:40:33.104Z,8.88
2023-03-23T23:42:31.072Z,5.47
2023-03-23T23:44:29.052Z,7.80
2023-03-23T23:46:27.234Z,7.43
2023-03-23T23:48:25.255Z,13.52
2023-03-23T23:50:23.188Z,6.95
2023-03-23T23:52:21.704Z,12.70
2023-03-23T23:54:23.055Z,8.95
2023-03-23T23:56:22.693Z,6.45
2023-03-23T23:58:20.851Z,11.18
